Time;durP1;ratioP1;P1;durP2;ratioP2;P2;SDS_P1;SDS_P2;PMS_P1;PMS_P2;Temp;Humidity;BMP_temperature;BMP_pressure;BME280_temperature;BME280_humidity;BME280_pressure;Samples;Min_cycle;Max_cycle;Signal;HPM_P1;HPM_P2
2023/03/23 00:03:01;;;;;;;6.70;6.20;;;11.70;79.20;;;;;;6248975;28;20475;-63
2023/03/23 00:06:05;;;;;;;6.97;6.17;;;11.70;79.70;;;;;;6247947;28;20467;-61
2023/03/23 00:09:08;;;;;;;6.97;6.30;;;11.80;80.20;;;;;;6249020;28;20490;-60
2023/03/23 00:12:15;;;;;;;6.63;5.87;;;11.70;80.10;;;;;;6244844;28;20478;-60
2023/03/23 00:15:17;;;;;;;6.67;6.03;;;11.70;80.50;;;;;;6248685;28;20981;-60
2023/03/23 00:18:22;;;;;;;5.87;5.37;;;11.70;80.70;;;;;;6248941;28;20869;-61
2023/03/23 00:21:33;;;;;;;7.73;5.87;;;11.60;81.20;;;;;;6248640;28;20548;-61
2023/03/23 00:24:36;;;;;;;9.50;6.30;;;11.50;81.30;;;;;;6253313;28;20462;-60
2023/03/23 00:27:38;;;;;;;7.40;6.60;;;11.60;81.90;;;;;;6253596;28;20905;-60
2023/03/23 00:30:41;;;;;;;6.20;5.70;;;11.50;82.00;;;;;;6252969;28;20454;-63
2023/03/23 00:33:45;;;;;;;7.03;6.30;;;11.40;82.50;;;;;;6251015;28;20439;-63
2023/03/23 00:36:48;;;;;;;6.60;6.00;;;11.40;82.90;;;;;;6247346;28;20470;-64
2023/03/23 00:39:51;;;;;;;10.17;6.13;;;11.40;83.30;;;;;;6242101;28;20819;-62
2023/03/23 00:42:53;;;;;;;7.70;5.70;;;11.40;83.90;;;;;;6250881;28;20983;-63
2023/03/23 00:45:55;;;;;;;9.40;6.60;;;11.30;84.20;;;;;;6272460;28;20466;-63
2023/03/23 00:48:59;;;;;;;7.13;6.43;;;11.20;84.70;;;;;;6276842;28;20465;-63
2023/03/23 00:52:02;;;;;;;8.63;7.10;;;11.20;84.90;;;;;;6270043;28;20467;-64
2023/03/23 00:55:05;;;;;;;6.90;6.20;;;11.20;85.30;;;;;;6243343;28;20483;-64
2023/03/23 00:58:07;;;;;;;6.80;6.20;;;11.10;85.80;;;;;;6248934;28;20474;-62
2023/03/23 01:01:10;;;;;;;8.33;6.97;;;11.10;86.20;;;;;;6248607;28;20785;-61
2023/03/23 01:04:14;;;;;;;8.90;6.40;;;11.10;87.00;;;;;;6250714;28;20476;-61
2023/03/23 01:07:17;;;;;;;9.73;6.80;;;11.20;88.80;;;;;;6251205;28;21148;-62
2023/03/23 01:10:20;;;;;;;7.87;6.60;;;11.10;89.10;;;;;;6251518;28;20850;-62
2023/03/23 01:13:22;;;;;;;7.40;6.70;;;11.10;89.90;;;;;;6251730;28;20475;-66
2023/03/23 01:16:25;;;;;;;6.93;6.23;;;11.10;90.20;;;;;;6250595;28;20546;-61
2023/03/23 01:19:28;;;;;;;8.47;6.63;;;11.10;90.30;;;;;;6252888;28;20462;-66
2023/03/23 01:22:30;;;;;;;6.50;5.90;;;11.10;90.40;;;;;;6252093;28;20494;-65
2023/03/23 01:25:36;;;;;;;6.47;5.63;;;11.10;90.50;;;;;;6250386;28;20482;-65
2023/03/23 01:28:39;;;;;;;5.77;5.30;;;11.10;90.50;;;;;;6250906;28;20471;-65
2023/03/23 01:31:42;;;;;;;6.10;5.53;;;11.00;90.50;;;;;;6250145;28;20459;-65
2023/03/23 01:34:45;;;;;;;6.40;5.77;;;11.00;90.70;;;;;;6249957;28;20598;-65
2023/03/23 01:37:48;;;;;;;8.50;6.67;;;11.00;91.00;;;;;;6252030;28;21285;-66
2023/03/23 01:40:50;;;;;;;6.87;6.17;;;10.90;91.10;;;;;;6254735;28;20937;-65
2023/03/23 01:43:57;;;;;;;6.30;5.70;;;10.90;91.10;;;;;;6252175;28;20502;-65
2023/03/23 01:46:59;;;;;;;6.83;6.20;;;10.90;91.20;;;;;;6250443;28;20482;-66
2023/03/23 01:50:03;;;;;;;8.73;6.53;;;10.90;91.20;;;;;;6251190;28;20824;-65
2023/03/23 01:53:08;;;;;;;7.27;6.57;;;10.80;91.30;;;;;;6249424;28;20467;-65
2023/03/23 01:56:12;;;;;;;6.40;5.80;;;10.80;91.50;;;;;;6250978;28;20471;-65
2023/03/23 01:59:15;;;;;;;6.30;5.80;;;10.70;91.60;;;;;;6246325;28;20471;-65
2023/03/23 02:02:17;;;;;;;6.63;5.93;;;10.70;91.80;;;;;;6252111;28;20484;-65
2023/03/23 02:05:28;;;;;;;7.23;6.53;;;10.70;91.90;;;;;;6250787;28;21006;-66
2023/03/23 02:08:32;;;;;;;6.93;5.80;;;10.70;92.10;;;;;;6249622;28;20474;-65
2023/03/23 02:11:35;;;;;;;9.23;6.83;;;10.70;92.50;;;;;;6250913;28;20466;-66
2023/03/23 02:14:37;;;;;;;6.00;5.37;;;10.60;92.10;;;;;;6251875;28;20585;-64
2023/03/23 02:17:45;;;;;;;6.33;5.70;;;10.60;92.30;;;;;;6250296;28;20471;-65
2023/03/23 02:21:08;;;;;;;6.77;5.60;;;10.50;92.30;;;;;;6242402;28;20486;-65
2023/03/23 02:24:42;;;;;;;6.40;5.80;;;10.50;92.50;;;;;;6251772;28;20479;-66
2023/03/23 02:28:05;;;;;;;6.70;6.13;;;10.40;92.40;;;;;;6247647;28;20451;-65
2023/03/23 02:31:38;;;;;;;7.27;6.50;;;10.40;92.70;;;;;;6249706;28;20467;-65
2023/03/23 02:34:43;;;;;;;7.50;6.80;;;10.30;92.70;;;;;;6250414;28;20961;-65
2023/03/23 02:37:49;;;;;;;6.80;6.00;;;10.30;92.70;;;;;;6250219;28;20467;-65
2023/03/23 02:40:54;;;;;;;6.63;6.03;;;10.20;92.90;;;;;;6253447;28;20466;-66
2023/03/23 02:43:57;;;;;;;6.50;5.87;;;10.10;93.10;;;;;;6253706;28;20494;-65
2023/03/23 02:47:03;;;;;;;6.03;5.40;;;10.10;93.30;;;;;;6249229;28;20772;-65
2023/03/23 02:50:11;;;;;;;6.60;6.00;;;10.10;93.40;;;;;;6249343;28;20467;-65
2023/03/23 02:53:16;;;;;;;7.37;5.80;;;10.10;93.60;;;;;;6250056;28;20470;-65
2023/03/23 02:56:21;;;;;;;6.97;6.37;;;10.00;93.70;;;;;;6249034;28;20490;-65
2023/03/23 02:59:23;;;;;;;7.43;6.73;;;10.00;93.80;;;;;;6249963;28;20475;-65
2023/03/23 03:02:27;;;;;;;6.97;6.27;;;10.00;93.80;;;;;;6249188;28;20471;-65
2023/03/23 03:05:40;;;;;;;8.20;6.80;;;9.90;94.40;;;;;;6249238;28;20498;-65
2023/03/23 03:08:49;;;;;;;9.53;7.50;;;9.90;94.50;;;;;;6250276;28;20991;-66
2023/03/23 03:11:57;;;;;;;7.43;6.80;;;9.90;94.70;;;;;;6249220;28;20467;-65
2023/03/23 03:15:09;;;;;;;8.00;7.27;;;9.90;94.80;;;;;;6250759;28;20490;-65
2023/03/23 03:18:21;;;;;;;8.30;5.93;;;9.90;94.90;;;;;;6249062;28;20471;-64
2023/03/23 03:21:28;;;;;;;7.23;6.63;;;9.90;94.90;;;;;;6248342;28;21012;-65
2023/03/23 03:24:32;;;;;;;7.70;7.00;;;9.90;94.90;;;;;;6248971;28;20474;-65
2023/03/23 03:27:35;;;;;;;7.40;6.70;;;9.70;95.00;;;;;;6287055;23;20476;-65
2023/03/23 03:30:38;;;;;;;6.87;6.20;;;9.80;95.30;;;;;;6291368;28;20461;-64
2023/03/23 03:33:40;;;;;;;6.70;5.63;;;9.70;95.20;;;;;;6297640;28;20426;-63
2023/03/23 03:36:45;;;;;;;7.93;6.50;;;9.60;95.20;;;;;;6264857;28;20815;-63
2023/03/23 03:39:47;;;;;;;7.53;6.57;;;9.60;95.40;;;;;;6268692;28;20561;-64
2023/03/23 03:42:49;;;;;;;7.23;6.53;;;9.60;95.50;;;;;;6256077;28;20454;-63
2023/03/23 03:45:51;;;;;;;7.10;6.40;;;9.60;95.50;;;;;;6273178;28;20466;-64
2023/03/23 03:48:53;;;;;;;7.30;6.60;;;9.50;95.70;;;;;;6292290;28;20462;-62
2023/03/23 03:51:57;;;;;;;7.13;6.63;;;9.50;95.90;;;;;;6271020;28;20468;-62
2023/03/23 03:54:59;;;;;;;7.30;6.43;;;9.50;95.90;;;;;;6253930;28;20474;-62
2023/03/23 03:58:01;;;;;;;5.67;5.17;;;9.50;95.90;;;;;;6271753;28;20481;-62
2023/03/23 04:01:03;;;;;;;6.50;5.90;;;9.50;96.00;;;;;;6258559;28;20544;-62
2023/03/23 04:04:07;;;;;;;7.43;6.83;;;9.50;96.10;;;;;;6258069;28;20484;-62
2023/03/23 04:07:13;;;;;;;6.90;6.30;;;9.40;96.00;;;;;;6258847;28;20512;-62
2023/03/23 04:10:15;;;;;;;7.47;6.70;;;9.40;96.10;;;;;;6258963;28;20473;-61
2023/03/23 04:13:18;;;;;;;7.40;6.50;;;9.40;96.10;;;;;;6276840;28;21153;-62
2023/03/23 04:16:20;;;;;;;10.30;7.23;;;9.40;96.10;;;;;;6258934;28;20950;-62
2023/03/23 04:19:23;;;;;;;9.47;7.03;;;9.40;96.20;;;;;;6277594;28;20470;-62
2023/03/23 04:22:29;;;;;;;7.33;6.70;;;9.40;96.40;;;;;;6277936;28;20470;-61
2023/03/23 04:25:33;;;;;;;7.63;6.60;;;9.30;96.40;;;;;;6277280;28;20554;-62
2023/03/23 04:28:35;;;;;;;9.07;7.47;;;9.30;96.50;;;;;;6277839;28;20548;-61
2023/03/23 04:31:38;;;;;;;11.43;7.10;;;9.30;96.50;;;;;;6277309;28;20470;-60
2023/03/23 04:34:40;;;;;;;8.87;6.87;;;9.20;96.60;;;;;;6276911;28;20492;-62
2023/03/23 04:37:44;;;;;;;9.50;7.30;;;9.20;96.70;;;;;;6276799;28;20522;-61
2023/03/23 04:40:46;;;;;;;7.70;7.00;;;9.20;96.70;;;;;;6259878;28;20458;-61
2023/03/23 04:43:53;;;;;;;6.53;5.93;;;9.20;96.80;;;;;;6277103;28;20484;-61
2023/03/23 04:46:55;;;;;;;7.50;6.80;;;9.10;96.70;;;;;;6259556;28;20970;-61
2023/03/23 04:49:57;;;;;;;7.70;6.30;;;9.10;96.70;;;;;;6276989;28;20470;-61
2023/03/23 04:53:03;;;;;;;8.10;7.37;;;9.10;96.90;;;;;;6259637;28;20950;-61
2023/03/23 04:56:06;;;;;;;7.50;6.43;;;9.10;97.00;;;;;;6276434;28;20492;-62
2023/03/23 04:59:08;;;;;;;6.90;6.30;;;9.10;97.10;;;;;;6257852;28;20465;-61
2023/03/23 05:02:10;;;;;;;8.80;7.60;;;9.10;97.30;;;;;;6259007;28;20516;-61
2023/03/23 05:05:14;;;;;;;6.83;6.13;;;9.00;97.40;;;;;;6258943;28;20470;-61
2023/03/23 05:08:18;;;;;;;9.60;6.07;;;9.10;97.60;;;;;;6276697;28;20470;-61
2023/03/23 05:11:20;;;;;;;7.90;6.70;;;9.10;97.70;;;;;;6276178;28;20465;-61
2023/03/23 05:14:22;;;;;;;7.77;7.03;;;9.20;97.70;;;;;;6258916;28;20480;-61
2023/03/23 05:17:24;;;;;;;8.80;7.37;;;9.10;97.80;;;;;;6276399;28;20482;-61
2023/03/23 05:20:27;;;;;;;10.10;8.83;;;9.20;97.80;;;;;;6276490;28;20481;-61
2023/03/23 05:23:33;;;;;;;9.30;8.40;;;9.20;97.90;;;;;;6276301;28;21039;-61
2023/03/23 05:26:35;;;;;;;7.40;6.70;;;9.30;97.90;;;;;;6276227;28;20481;-61
2023/03/23 05:29:40;;;;;;;8.27;7.57;;;9.30;97.80;;;;;;6276208;28;20470;-61
2023/03/23 05:32:42;;;;;;;9.60;8.73;;;9.40;97.80;;;;;;6267385;28;20607;-61
2023/03/23 05:35:46;;;;;;;10.70;9.70;;;9.40;97.80;;;;;;6258393;28;20505;-61
2023/03/23 05:38:52;;;;;;;11.73;9.83;;;9.50;97.80;;;;;;6276306;28;20474;-61
2023/03/23 05:41:54;;;;;;;10.73;9.63;;;9.50;97.70;;;;;;6275743;28;20826;-61
2023/03/23 05:44:56;;;;;;;10.90;9.80;;;9.60;97.70;;;;;;6257964;28;20481;-61
2023/03/23 05:47:58;;;;;;;9.80;8.93;;;9.70;97.50;;;;;;6275957;28;20460;-61
2023/03/23 05:51:00;;;;;;;10.70;8.93;;;9.80;97.10;;;;;;6275575;28;20470;-61
2023/03/23 05:54:04;;;;;;;9.90;7.80;;;9.90;97.10;;;;;;6275697;28;20469;-61
2023/03/23 05:57:06;;;;;;;8.00;7.40;;;10.00;96.30;;;;;;6275621;28;20493;-61
2023/03/23 06:00:19;;;;;;;11.27;7.87;;;10.10;96.20;;;;;;6275745;28;20555;-61
2023/03/23 06:03:22;;;;;;;8.63;7.73;;;10.20;96.10;;;;;;6257993;28;20802;-61
2023/03/23 06:06:24;;;;;;;10.60;8.00;;;10.30;95.80;;;;;;6274973;28;20488;-62
2023/03/23 06:09:28;;;;;;;9.00;7.80;;;10.40;95.60;;;;;;6275555;28;20469;-62
2023/03/23 06:12:31;;;;;;;9.50;8.33;;;10.50;95.40;;;;;;6274803;28;20551;-61
2023/03/23 06:15:33;;;;;;;8.47;7.60;;;10.60;95.50;;;;;;6258138;28;20458;-61
2023/03/23 06:18:36;;;;;;;10.93;7.83;;;10.80;95.10;;;;;;6275126;28;20804;-61
2023/03/23 06:21:38;;;;;;;11.53;8.10;;;10.90;94.90;;;;;;6274759;28;20437;-61
2023/03/23 06:24:42;;;;;;;11.43;8.90;;;11.10;94.70;;;;;;6275002;28;20989;-61
2023/03/23 06:27:45;;;;;;;12.07;8.67;;;11.20;94.30;;;;;;6256592;28;20446;-61
2023/03/23 06:30:47;;;;;;;14.33;8.97;;;11.30;94.30;;;;;;6274109;28;20509;-61
2023/03/23 06:33:50;;;;;;;11.00;8.77;;;11.50;93.90;;;;;;6269406;28;20470;-61
2023/03/23 06:36:52;;;;;;;9.80;7.53;;;11.70;93.70;;;;;;6255740;28;20481;-61
2023/03/23 06:39:55;;;;;;;10.47;8.97;;;11.80;93.40;;;;;;6256330;28;20466;-61
2023/03/23 06:42:58;;;;;;;10.03;8.23;;;12.00;93.10;;;;;;6273538;28;20797;-61
2023/03/23 06:46:01;;;;;;;11.13;8.90;;;12.10;92.80;;;;;;6273653;28;20531;-61
2023/03/23 06:49:03;;;;;;;14.27;8.33;;;12.40;92.60;;;;;;6273552;28;20466;-61
2023/03/23 06:52:06;;;;;;;15.47;8.80;;;12.50;92.30;;;;;;6256556;28;20472;-61
2023/03/23 06:55:10;;;;;;;10.93;7.90;;;12.80;91.90;;;;;;6256413;28;20474;-61
2023/03/23 06:58:12;;;;;;;10.43;8.77;;;13.20;91.60;;;;;;6273477;28;20474;-61
2023/03/23 07:01:14;;;;;;;11.63;7.80;;;13.70;90.60;;;;;;6273218;28;20979;-62
2023/03/23 07:04:17;;;;;;;10.10;9.13;;;14.10;89.30;;;;;;6255840;28;20474;-62
2023/03/23 07:07:20;;;;;;;10.73;8.93;;;14.50;87.20;;;;;;6273562;28;20474;-63
2023/03/23 07:10:23;;;;;;;10.00;8.83;;;14.90;86.10;;;;;;6273303;28;20473;-62
2023/03/23 07:13:26;;;;;;;9.30;7.37;;;15.80;84.00;;;;;;6273386;28;20470;-62
2023/03/23 07:16:28;;;;;;;9.73;8.30;;;17.50;78.90;;;;;;6255312;28;20561;-62
2023/03/23 07:19:30;;;;;;;8.97;7.77;;;19.40;71.90;;;;;;6272960;28;20474;-62
2023/03/23 07:22:32;;;;;;;9.43;8.07;;;20.60;62.80;;;;;;6272857;28;20564;-61
2023/03/23 07:25:37;;;;;;;9.00;8.10;;;21.00;58.00;;;;;;6215783;28;1125411;-61
2023/03/23 07:28:39;;;;;;;8.30;7.53;;;21.10;56.20;;;;;;6256257;28;20473;-62
2023/03/23 07:31:42;;;;;;;8.83;6.73;;;21.40;55.00;;;;;;6274164;28;20573;-63
2023/03/23 07:34:44;;;;;;;10.17;8.63;;;21.50;53.30;;;;;;6259674;28;20227;-62
2023/03/23 07:37:48;;;;;;;10.80;7.90;;;21.70;52.60;;;;;;6278991;28;20238;-62
2023/03/23 07:40:52;;;;;;;10.50;8.07;;;22.10;51.20;;;;;;6279291;28;20280;-63
2023/03/23 07:43:54;;;;;;;8.97;8.07;;;22.40;50.10;;;;;;6261414;28;20231;-62
2023/03/23 07:46:56;;;;;;;18.80;14.13;;;22.70;48.80;;;;;;6279042;28;20256;-62
2023/03/23 07:49:58;;;;;;;18.47;16.47;;;22.80;48.00;;;;;;6261414;28;20231;-62
2023/03/23 07:53:00;;;;;;;23.67;17.17;;;22.90;48.10;;;;;;6261376;28;20235;-61
2023/03/23 07:56:04;;;;;;;18.70;16.57;;;23.20;47.30;;;;;;6260884;28;20239;-62
2023/03/23 07:59:06;;;;;;;18.50;16.60;;;23.30;46.20;;;;;;6278615;28;20244;-63
2023/03/23 08:02:10;;;;;;;19.53;16.80;;;23.30;45.80;;;;;;6278488;28;20595;-62
2023/03/23 08:05:13;;;;;;;19.13;16.27;;;22.90;46.10;;;;;;6278329;28;20665;-62
2023/03/23 08:08:15;;;;;;;18.80;15.80;;;22.00;47.10;;;;;;6278648;28;20223;-62
2023/03/23 08:11:19;;;;;;;19.33;15.47;;;21.20;48.50;;;;;;6278354;28;20224;-62
2023/03/23 08:14:21;;;;;;;24.07;15.10;;;20.50;50.20;;;;;;6278224;28;20242;-62
2023/03/23 08:17:24;;;;;;;19.00;15.20;;;19.80;51.60;;;;;;6278187;28;20231;-63
2023/03/23 08:20:26;;;;;;;18.87;15.97;;;19.50;52.70;;;;;;6260491;28;20648;-62
2023/03/23 08:23:28;;;;;;;20.50;14.90;;;19.10;53.20;;;;;;6277670;28;20638;-62
2023/03/23 08:26:32;;;;;;;21.13;16.70;;;19.00;54.00;;;;;;6278065;28;20235;-62
2023/03/23 08:29:34;;;;;;;23.70;14.60;;;19.00;54.40;;;;;;6277262;28;20234;-62
2023/03/23 08:32:36;;;;;;;23.03;14.20;;;19.00;54.40;;;;;;6276851;28;20230;-63
2023/03/23 08:35:38;;;;;;;28.53;15.53;;;19.30;54.20;;;;;;6276617;28;20238;-62
2023/03/23 08:38:40;;;;;;;17.40;13.57;;;19.60;53.60;;;;;;6255805;28;20361;-62
2023/03/23 08:41:44;;;;;;;17.60;14.33;;;19.80;53.70;;;;;;6259711;28;20227;-61
2023/03/23 08:44:46;;;;;;;19.50;14.40;;;20.80;51.90;;;;;;6238592;28;20614;-61
2023/03/23 08:47:51;;;;;;;20.87;15.97;;;21.60;51.00;;;;;;6259461;28;20223;-61
2023/03/23 08:50:53;;;;;;;16.90;14.60;;;22.20;49.60;;;;;;6277145;28;20231;-61
2023/03/23 08:53:55;;;;;;;20.17;14.27;;;22.40;48.50;;;;;;6259456;28;20309;-62
2023/03/23 08:57:02;;;;;;;17.83;15.60;;;22.20;48.60;;;;;;6276556;28;20231;-62
2023/03/23 09:00:13;;;;;;;19.07;14.30;;;21.80;48.70;;;;;;6276804;28;20239;-62
2023/03/23 09:03:17;;;;;;;22.17;17.03;;;21.40;49.10;;;;;;6280681;28;20697;-64
2023/03/23 09:06:19;;;;;;;19.97;14.00;;;21.20;49.70;;;;;;6301282;28;20231;-64
2023/03/23 09:09:21;;;;;;;19.63;15.10;;;21.50;49.90;;;;;;6283271;28;20219;-64
2023/03/23 09:12:24;;;;;;;19.57;14.70;;;22.40;48.80;;;;;;6284458;28;20223;-62
2023/03/23 09:15:27;;;;;;;17.93;15.00;;;23.20;47.00;;;;;;6277275;28;20238;-62
2023/03/23 09:18:29;;;;;;;21.43;13.60;;;23.70;45.80;;;;;;6273677;28;20257;-69
2023/03/23 09:21:31;;;;;;;21.57;15.97;;;24.50;45.10;;;;;;6276331;28;20234;-64
2023/03/23 09:24:33;;;;;;;18.47;14.00;;;25.50;43.30;;;;;;6258748;28;20203;-64
2023/03/23 09:27:38;;;;;;;22.00;12.50;;;26.30;40.70;;;;;;6276273;28;20226;-64
2023/03/23 09:30:43;;;;;;;20.10;13.07;;;26.30;39.80;;;;;;6258623;28;20613;-64
2023/03/23 09:33:46;;;;;;;12.87;11.57;;;25.90;39.70;;;;;;6276102;28;20191;-62
2023/03/23 09:36:49;;;;;;;14.07;10.80;;;26.00;40.00;;;;;;6258061;28;20233;-63
2023/03/23 09:39:51;;;;;;;15.17;12.57;;;26.40;38.90;;;;;;6275742;28;20242;-62
2023/03/23 09:43:14;;;;;;;15.40;11.50;;;26.50;38.00;;;;;;6275935;28;20233;-61
2023/03/23 09:46:35;;;;;;;14.60;12.73;;;26.40;38.30;;;;;;6249072;28;20238;-61
2023/03/23 09:49:42;;;;;;;16.90;11.10;;;27.20;37.50;;;;;;6275674;28;20235;-61
2023/03/23 09:52:48;;;;;;;12.70;10.50;;;28.50;36.20;;;;;;6261688;28;20236;-66
2023/03/23 09:55:51;;;;;;;13.32;11.05;;;29.70;33.60;;;;;;6232430;28;20266;-63
2023/03/23 09:58:59;;;;;;;14.13;10.70;;;32.70;30.70;;;;;;6233443;28;20250;-64
2023/03/23 10:02:14;;;;;;;10.85;9.40;;;35.60;26.90;;;;;;6244667;28;20641;-65
2023/03/23 10:05:28;;;;;;;11.25;8.88;;;37.80;23.40;;;;;;6257216;28;20242;-64
2023/03/23 10:08:34;;;;;;;15.85;10.50;;;38.50;22.30;;;;;;6273157;28;20534;-65
2023/03/23 10:11:48;;;;;;;10.25;9.35;;;40.30;20.90;;;;;;6257870;28;20250;-65
2023/03/23 10:15:19;;;;;;;12.50;9.77;;;41.80;19.10;;;;;;6257994;28;20235;-64
2023/03/23 10:18:27;;;;;;;14.32;10.18;;;40.20;18.70;;;;;;6275256;28;20264;-64
2023/03/23 10:21:32;;;;;;;10.75;9.65;;;38.40;19.70;;;;;;6257938;28;20231;-64
2023/03/23 10:24:37;;;;;;;11.60;8.73;;;37.40;20.50;;;;;;6274381;28;20242;-66
2023/03/23 10:27:46;;;;;;;11.85;9.75;;;37.40;20.50;;;;;;6257963;28;20265;-62
2023/03/23 10:30:55;;;;;;;10.77;9.27;;;37.30;20.40;;;;;;6274961;28;20184;-64
2023/03/23 10:34:02;;;;;;;10.73;9.80;;;37.10;20.70;;;;;;6274478;28;20227;-67
2023/03/23 10:37:10;;;;;;;11.45;10.63;;;37.20;20.50;;;;;;6273700;28;20345;-61
2023/03/23 10:40:18;;;;;;;11.07;9.13;;;36.60;21.20;;;;;;6255814;28;20257;-62
2023/03/23 10:43:20;;;;;;;9.85;9.07;;;36.00;21.50;;;;;;6274532;28;20575;-62
2023/03/23 10:46:30;;;;;;;11.23;9.98;;;35.80;21.70;;;;;;6273961;28;20672;-65
2023/03/23 10:49:38;;;;;;;14.60;10.48;;;35.60;21.50;;;;;;6252701;28;20227;-65
2023/03/23 10:52:42;;;;;;;11.45;9.75;;;35.30;22.10;;;;;;6261325;28;20304;-64
2023/03/23 10:55:44;;;;;;;11.98;10.77;;;35.00;22.30;;;;;;6249331;28;20235;-63
2023/03/23 10:58:46;;;;;;;9.98;9.07;;;34.50;22.70;;;;;;6234554;28;20314;-62
2023/03/23 11:01:53;;;;;;;10.13;9.32;;;34.40;22.70;;;;;;6273173;28;20223;-63
2023/03/23 11:05:03;;;;;;;10.98;10.07;;;34.40;22.60;;;;;;6274300;28;20235;-62
2023/03/23 11:08:13;;;;;;;9.90;9.15;;;34.30;22.50;;;;;;6274440;28;20357;-62
2023/03/23 11:11:18;;;;;;;11.63;10.50;;;33.70;22.80;;;;;;6274172;28;20257;-61
2023/03/23 11:14:27;;;;;;;10.80;9.80;;;32.80;23.40;;;;;;6274400;28;20234;-61
2023/03/23 11:17:30;;;;;;;9.27;8.27;;;31.70;25.00;;;;;;6274237;28;20227;-61
2023/03/23 11:20:36;;;;;;;10.68;9.57;;;31.40;24.70;;;;;;6274066;28;20385;-63
2023/03/23 11:23:42;;;;;;;10.77;9.75;;;31.20;25.10;;;;;;6256603;28;20599;-64
2023/03/23 11:26:47;;;;;;;10.30;9.50;;;31.40;25.30;;;;;;6274059;28;20246;-66
2023/03/23 11:29:53;;;;;;;10.70;9.90;;;31.40;25.30;;;;;;6273939;28;20247;-65
2023/03/23 11:33:02;;;;;;;10.82;9.93;;;30.30;25.50;;;;;;6256006;28;20234;-63
2023/03/23 11:36:04;;;;;;;10.17;8.90;;;29.50;26.40;;;;;;6278608;28;20237;-60
2023/03/23 11:39:22;;;;;;;10.07;8.30;;;28.40;27.70;;;;;;6298457;28;20238;-60
2023/03/23 11:42:27;;;;;;;12.07;8.50;;;27.40;28.60;;;;;;6299031;28;20227;-60
2023/03/23 11:45:35;;;;;;;10.30;9.33;;;26.70;29.50;;;;;;6285831;28;20245;-60
2023/03/23 11:48:45;;;;;;;9.50;8.70;;;25.70;31.00;;;;;;6273781;28;20601;-60
2023/03/23 11:51:51;;;;;;;10.20;8.80;;;25.00;32.30;;;;;;6267211;28;20189;-61
2023/03/23 11:55:04;;;;;;;10.13;9.13;;;24.40;33.50;;;;;;6249010;28;20236;-61
2023/03/23 11:58:14;;;;;;;9.53;8.73;;;24.40;33.80;;;;;;6249462;28;20238;-60
2023/03/23 12:01:29;;;;;;;8.03;7.40;;;25.10;33.60;;;;;;6248551;28;20298;-60
2023/03/23 12:05:14;;;;;;;10.33;9.33;;;26.00;31.70;;;;;;6249136;28;20240;-60
2023/03/23 12:08:33;;;;;;;9.73;8.63;;;26.90;29.70;;;;;;6248457;28;20228;-60
2023/03/23 12:11:52;;;;;;;9.87;8.87;;;27.80;29.20;;;;;;6246675;28;20231;-60
2023/03/23 12:15:02;;;;;;;9.10;8.30;;;28.70;28.40;;;;;;6266482;28;20231;-61
2023/03/23 12:18:14;;;;;;;10.53;8.60;;;29.30;27.90;;;;;;6251602;28;20230;-61
2023/03/23 12:21:27;;;;;;;9.60;8.73;;;29.50;27.80;;;;;;6275269;28;21048;-61
2023/03/23 12:24:43;;;;;;;8.77;7.88;;;29.90;27.60;;;;;;6258584;28;20259;-61
2023/03/23 12:27:50;;;;;;;10.48;9.38;;;30.20;27.10;;;;;;6277071;28;20218;-61
2023/03/23 12:31:01;;;;;;;9.60;8.60;;;30.10;27.30;;;;;;6277903;28;20226;-61
2023/03/23 12:34:12;;;;;;;9.02;8.23;;;30.40;27.10;;;;;;6277907;28;20300;-61
2023/03/23 12:37:32;;;;;;;11.77;8.70;;;30.40;26.90;;;;;;6277443;28;20242;-61
2023/03/23 12:40:49;;;;;;;10.20;9.10;;;29.40;27.70;;;;;;6277877;28;20557;-62
2023/03/23 12:43:54;;;;;;;10.20;9.30;;;28.60;29.00;;;;;;6277333;28;20472;-61
2023/03/23 12:47:15;;;;;;;10.27;9.40;;;28.60;28.90;;;;;;6259570;28;20230;-61
2023/03/23 12:50:24;;;;;;;10.63;9.57;;;28.40;29.40;;;;;;6277269;28;20227;-61
2023/03/23 12:53:31;;;;;;;9.70;8.70;;;27.90;30.00;;;;;;6257048;28;20246;-61
2023/03/23 12:56:36;;;;;;;9.60;8.40;;;27.60;30.50;;;;;;6252456;28;20231;-60
2023/03/23 12:59:45;;;;;;;10.90;9.80;;;27.70;31.10;;;;;;6243249;28;20251;-61
2023/03/23 13:02:54;;;;;;;11.23;10.13;;;28.20;30.00;;;;;;6252337;28;20236;-62
2023/03/23 13:06:04;;;;;;;10.07;9.10;;;28.20;30.00;;;;;;6251428;28;20561;-61
2023/03/23 13:09:14;;;;;;;9.83;9.03;;;28.10;30.20;;;;;;6251738;28;20224;-61
2023/03/23 13:12:19;;;;;;;10.77;9.83;;;27.70;30.30;;;;;;6252198;28;20377;-60
2023/03/23 13:15:32;;;;;;;9.20;8.37;;;27.20;31.10;;;;;;6252030;28;20246;-61
2023/03/23 13:18:43;;;;;;;10.93;9.80;;;26.40;32.20;;;;;;6251931;28;20232;-61
2023/03/23 13:21:50;;;;;;;11.00;9.90;;;26.40;32.70;;;;;;6251756;28;20625;-60
2023/03/23 13:24:57;;;;;;;9.77;8.90;;;26.40;32.80;;;;;;6251222;28;20928;-62
2023/03/23 13:28:00;;;;;;;9.67;8.77;;;26.40;32.80;;;;;;6251364;28;20226;-62
2023/03/23 13:31:05;;;;;;;10.23;9.33;;;26.20;32.80;;;;;;6250300;28;20235;-62
2023/03/23 13:34:16;;;;;;;11.07;9.80;;;26.10;33.10;;;;;;6275490;28;20231;-62
2023/03/23 13:37:25;;;;;;;10.57;9.60;;;26.30;33.00;;;;;;6275320;28;20227;-67
2023/03/23 13:40:31;;;;;;;11.23;10.13;;;25.90;33.10;;;;;;6258170;28;20318;-63
2023/03/23 13:43:37;;;;;;;10.33;9.40;;;25.40;34.20;;;;;;6275285;28;20215;-62
2023/03/23 13:46:39;;;;;;;10.13;9.33;;;25.00;35.50;;;;;;6275371;28;20305;-63
2023/03/23 13:49:49;;;;;;;12.67;9.40;;;24.80;35.10;;;;;;6275034;28;20561;-61
2023/03/23 13:52:54;;;;;;;11.63;10.60;;;24.70;35.50;;;;;;6275387;28;20219;-61
2023/03/23 13:56:17;;;;;;;10.00;9.20;;;24.40;35.80;;;;;;6274853;28;20230;-61
2023/03/23 13:59:33;;;;;;;11.00;9.80;;;24.20;36.20;;;;;;6273673;28;20227;-61
2023/03/23 14:02:39;;;;;;;12.90;11.50;;;24.00;36.40;;;;;;6251632;28;20234;-61
2023/03/23 14:05:43;;;;;;;12.37;9.43;;;23.70;36.70;;;;;;6274839;28;20231;-61
2023/03/23 14:08:49;;;;;;;9.63;8.83;;;23.70;37.00;;;;;;6274522;28;20535;-64
2023/03/23 14:11:57;;;;;;;9.70;8.77;;;23.70;36.60;;;;;;6255255;28;20224;-64
2023/03/23 14:15:04;;;;;;;9.00;8.30;;;23.50;36.50;;;;;;6256629;28;20302;-62
2023/03/23 14:18:06;;;;;;;11.00;9.97;;;23.60;36.40;;;;;;6255295;28;20219;-66
2023/03/23 14:21:16;;;;;;;10.77;9.70;;;23.30;36.30;;;;;;6274263;28;20227;-63
2023/03/23 14:24:23;;;;;;;9.10;8.17;;;23.10;37.70;;;;;;6255136;28;20227;-66
2023/03/23 14:27:28;;;;;;;10.53;9.43;;;23.00;37.20;;;;;;6249164;28;20240;-65
2023/03/23 14:30:37;;;;;;;9.43;8.23;;;22.60;37.70;;;;;;6253538;28;20645;-64
2023/03/23 14:33:41;;;;;;;9.10;8.30;;;22.60;37.90;;;;;;6272610;28;20660;-65
2023/03/23 14:36:44;;;;;;;9.53;8.63;;;22.40;37.80;;;;;;6273597;28;20224;-67
2023/03/23 14:39:48;;;;;;;8.67;7.73;;;22.30;37.70;;;;;;6273757;28;20680;-63
2023/03/23 14:42:54;;;;;;;8.20;7.40;;;22.30;37.70;;;;;;6274898;28;20200;-64
2023/03/23 14:45:59;;;;;;;8.77;7.97;;;22.40;37.60;;;;;;6265728;28;20296;-63
2023/03/23 14:49:03;;;;;;;8.10;7.33;;;22.20;37.30;;;;;;6256681;28;20241;-65
2023/03/23 14:52:11;;;;;;;8.03;7.33;;;22.20;37.50;;;;;;6248383;28;20236;-68
2023/03/23 14:55:15;;;;;;;9.17;8.33;;;22.30;37.00;;;;;;6249310;28;20236;-66
2023/03/23 14:58:20;;;;;;;7.40;6.70;;;22.30;36.90;;;;;;6232263;28;20228;-65
2023/03/23 15:01:27;;;;;;;7.40;6.70;;;22.40;37.20;;;;;;6249596;28;20540;-64
2023/03/23 15:04:29;;;;;;;6.90;6.30;;;22.30;36.70;;;;;;6231798;28;20228;-64
2023/03/23 15:07:35;;;;;;;7.83;6.97;;;22.20;36.30;;;;;;6222675;28;20638;-66
2023/03/23 15:10:37;;;;;;;6.70;6.10;;;22.20;37.10;;;;;;6249974;28;20240;-65
2023/03/23 15:13:45;;;;;;;6.67;5.03;;;22.10;36.40;;;;;;6249223;28;20242;-63
2023/03/23 15:16:49;;;;;;;6.00;5.50;;;22.20;36.40;;;;;;6232201;28;20246;-65
2023/03/23 15:19:53;;;;;;;6.40;5.83;;;22.20;36.30;;;;;;6249069;28;20309;-66
2023/03/23 15:22:55;;;;;;;7.47;6.70;;;22.10;36.30;;;;;;6269674;28;20242;-64
2023/03/23 15:26:03;;;;;;;6.80;6.10;;;22.00;36.50;;;;;;6269836;28;20242;-65
2023/03/23 15:29:16;;;;;;;5.73;5.00;;;21.90;36.70;;;;;;6299028;28;20223;-64
2023/03/23 15:32:28;;;;;;;6.50;5.77;;;22.00;37.00;;;;;;6298541;28;20242;-65
2023/03/23 15:35:36;;;;;;;5.20;4.80;;;22.00;37.20;;;;;;6299211;28;20253;-64
2023/03/23 15:38:38;;;;;;;6.83;5.73;;;22.00;37.10;;;;;;6281190;28;20250;-65
2023/03/23 15:41:48;;;;;;;5.77;5.30;;;21.90;37.20;;;;;;6298412;28;20230;-66
2023/03/23 15:44:59;;;;;;;6.60;6.00;;;21.90;37.40;;;;;;6273986;28;20235;-65
2023/03/23 15:48:12;;;;;;;5.97;5.43;;;21.80;37.10;;;;;;6273665;28;20231;-66
2023/03/23 15:51:14;;;;;;;10.20;5.67;;;21.80;37.20;;;;;;6271541;28;20231;-64
2023/03/23 15:54:17;;;;;;;5.90;5.40;;;21.90;37.40;;;;;;6232639;28;20239;-65
2023/03/23 15:57:19;;;;;;;7.17;6.57;;;21.90;37.60;;;;;;6236123;28;20662;-66
2023/03/23 16:00:25;;;;;;;7.23;6.47;;;21.80;37.70;;;;;;6236392;28;20232;-67
2023/03/23 16:03:31;;;;;;;7.80;7.00;;;21.90;38.00;;;;;;6253320;28;20235;-65